• Join FlightAware (Why Join?)
  • Login
  • US Flag GB Flag 
01:41 EDT


 

Airport Tracker/Info


-or-


 

Live Flight TrackerFlight Track Log ✈ UAL5829 ✈ 16-Apr-2013 ✈ KORD - KCMH

Flight Track Log - Related Links

Times and Time Zones

All times are in EDT time to prevent confusion due to time zone crossing. See the UAL5829 flight status page for this flight to view local times or setup timezone preferences in your user account.

Time Position Orientation Groundspeed Altitude Reporting Facility
EDT Latitude Longitude Course Direction KTS MPH feet Rate Location/Type
12:32 41.9333 -87.9167 90° East 156 180 2,600  Level Chicago TRACON
12:33 41.8833 -87.8667 143° Southeast 229 264 4,100 1,860 Climbing Chicago TRACON
12:35 41.9602 -87.4684 98° East  Level FlightAware Approximate
12:36 41.9471 -87.3254 95° East  Level FlightAware Approximate
12:36 41.8539 -87.6489 100° East 304 350 9,000  Level Chicago Center
12:37 41.9369 -87.1821 95° East  Level FlightAware Approximate
12:37 41.8728 -87.5308 78° East 319 367 10,900  Level Chicago Center
12:38 41.9333 -87.0383 90° East  Level FlightAware Approximate
12:38 41.8922 -87.4019 79° East 344 396 12,400  Level Chicago Center
12:39 41.9133 -87.2628 78° East 373 429 13,600 1,020 Climbing Chicago Center
12:40 41.9036 -87.1078 95° East 414 476 14,500 1,260 Climbing Chicago Center
12:41 41.8861 -86.9211 97° East 421 484 16,300 1,440 Climbing Chicago Center
12:42 41.8717 -86.7631 97° East 424 488 17,500 960 Climbing Chicago Center
12:43 41.8592 -86.6222 97° East 431 496 18,300 1,020 Climbing Chicago Center
12:44 41.8400 -86.4275 97° East 439 505 19,700 1,080 Climbing Chicago Center
12:45 41.8228 -86.2597 98° East 452 520 20,600 960 Climbing Chicago Center
12:46 41.8064 -86.0900 97° East 459 528 21,700 1,020 Climbing Chicago Center
12:47 41.7889 -85.9181 98° East 465 535 22,800 1,140 Climbing Chicago Center
12:48 41.7703 -85.7453 98° East 467 537 24,100 1,200 Climbing Chicago Center
12:49 41.7314 -85.5808 108° East 459 528 25,400 1,260 Climbing Chicago Center
12:50 41.6419 -85.4461 132° Southeast 441 507 26,700 780 Climbing Chicago Center
12:51 41.5417 -85.3619 148° Southeast 427 491 27,000 120 Climbing Chicago Center
12:52 41.4372 -85.2703 147° Southeast 442 509 27,000  Level Chicago Center
12:53 41.3289 -85.1794 148° Southeast 457 526 27,000  Level Chicago Center
12:54 41.2178 -85.0867 148° Southeast 468 539 27,000 -600 Level Chicago Center
12:55 41.0842 -84.9761 148° Southeast 471 542 25,800 -1,440 Descending Chicago Center
12:56 40.9725 -84.8825 148° Southeast 474 545 24,100 -1,380 Descending Chicago Center
12:57 40.8667 -84.7853 145° Southeast 468 539 23,000 -540 Descending Chicago Center
12:58 40.8050 -84.6311 118° Southeast 475 547 23,000 -540 Level Chicago Center
12:59 40.7536 -84.4694 113° Southeast 478 550 22,000 -1,080 Descending Chicago Center
13:00 40.7247 -84.3617 109° East 471 542 21,300 -1,320 Descending Indianapolis Center
13:01 40.6742 -84.2019 113° Southeast 469 540 19,900 -1,380 Descending Indianapolis Center
13:02 40.6250 -84.0442 112° Southeast 461 531 18,500 -1,440 Descending Indianapolis Center
13:03 40.5767 -83.8900 112° Southeast 452 520 17,000 -1,920 Descending Indianapolis Center
13:04 40.5378 -83.7783 115° Southeast 428 493 15,300 -2,280 Descending Indianapolis Center
13:04 40.5294 -83.7456 108° East 431 496 14,700 -2,400 Descending Indianapolis Center
13:05 40.4939 -83.6356 113° Southeast 418 481 12,900 -2,400 Descending Indianapolis Center
13:05 40.4842 -83.6039 112° Southeast 416 479 12,300 -1,680 Descending Indianapolis Center
13:06 40.4436 -83.5169 121° Southeast 396 456 11,400 -1,200 Descending Indianapolis Center
13:06 40.4222 -83.4808 128° Southeast 402 463 11,100 -840 Descending Indianapolis Center
13:07 40.3764 -83.4047 128° Southeast 393 452 10,600 -780 Descending Indianapolis Center
13:07 40.3522 -83.3675 130° Southeast 396 456 10,300 -720 Descending Indianapolis Center
13:08 40.3047 -83.2947 131° Southeast 394 453 9,900 -300 Descending Indianapolis Center
13:08 40.2644 -83.2617 148° Southeast 355 409 10,000 -480 Climbing Indianapolis Center
13:09 40.2236 -83.2275 147° Southeast 289 333 9,400 -1,200 Descending Indianapolis Center
13:09 40.1947 -83.2006 145° Southeast 301 346 8,800 -1,500 Descending Indianapolis Center
13:10 40.1606 -83.1711 147° Southeast 303 349 8,100 -1,680 Descending Indianapolis Center
13:10 40.1300 -83.1281 133° Southeast 310 357 7,100 -1,440 Descending Indianapolis Center
13:11 40.1203 -83.0872 107° East 320 368 6,800 -1,020 Descending Indianapolis Center
13:11 40.1031 -83.0217 109° East 304 350 6,100 -840 Descending Indianapolis Center
13:12 40.0942 -82.9806 106° East 294 338 6,000 -240 Descending Indianapolis Center
13:12 40.0908 -82.9150 94° East 296 341 5,900  Descending Indianapolis Center
13:13 40.0886 -82.8764 94° East 292 336 6,000 -420 Climbing Indianapolis Center
13:13 40.0869 -82.8069 92° East 293 337 5,500 -1,020 Descending Indianapolis Center
13:14 40.0831 -82.7694 98° East 298 343 5,000 -1,260 Descending Indianapolis Center
13:14 40.0814 -82.7003 92° East 293 337 4,200 -1,020 Descending Indianapolis Center
13:15 40.0686 -82.6700 119° Southeast 278 320 4,000 -300 Descending Indianapolis Center
13:15 40.0350 -82.6367 143° Southeast 260 299 3,900  Descending Indianapolis Center
13:16 40.0181 -82.6453 201° Southwest 193 222 4,000 -420 Climbing Indianapolis Center
13:17 40.0014 -82.6872 243° Southwest 215 247 3,500 -840 Descending Indianapolis Center
13:17 39.9947 -82.7133 252° West 183 211 3,200 -1,140 Descending Indianapolis Center